Time;durP1;ratioP1;P1;durP2;ratioP2;P2;SDS_P1;SDS_P2;PMS_P1;PMS_P2;Temp;Humidity;BMP_temperature;BMP_pressure;BME280_temperature;BME280_humidity;BME280_pressure;Samples;Min_cycle;Max_cycle;Signal;HPM_P1;HPM_P2
2023/10/30 00:04:01;;;;;;;5.38;0.98;;;;;;;11.43;77.79;98863.84;10303572;28;20043;-81
2023/10/30 00:09:05;;;;;;;9.02;1.58;;;;;;;11.37;78.02;98849.22;10291492;28;20055;-79
2023/10/30 00:14:09;;;;;;;7.82;1.00;;;;;;;11.30;78.34;98855.41;10295315;28;20067;-80
2023/10/30 00:19:12;;;;;;;7.07;1.00;;;;;;;11.41;77.77;98863.16;10302764;28;20047;-80
2023/10/30 00:24:15;;;;;;;6.95;0.85;;;;;;;11.31;78.28;98862.50;10303275;28;20053;-79
2023/10/30 00:29:19;;;;;;;7.43;1.00;;;;;;;11.40;77.51;98875.75;10314838;28;20042;-79
2023/10/30 00:34:22;;;;;;;8.20;0.90;;;;;;;11.53;76.75;98912.09;10296185;28;20821;-80
2023/10/30 00:39:25;;;;;;;6.63;1.05;;;;;;;11.19;78.02;98902.25;10301977;28;20528;-79
2023/10/30 00:44:29;;;;;;;6.80;0.70;;;;;;;11.06;78.52;98892.81;10303618;28;20462;-79
2023/10/30 00:49:34;;;;;;;6.93;1.05;;;;;;;11.34;77.30;98880.97;10296646;28;20051;-79
2023/10/30 00:54:37;;;;;;;12.48;1.98;;;;;;;11.45;76.55;98889.53;10299805;28;20047;-80
2023/10/30 00:59:41;;;;;;;6.45;1.42;;;;;;;11.57;76.19;98902.66;10303589;28;20046;-81
2023/10/30 01:04:44;;;;;;;6.68;1.38;;;;;;;11.43;76.29;98920.28;10295904;28;20039;-79
2023/10/30 01:09:49;;;;;;;5.80;1.00;;;;;;;11.27;76.96;98913.91;10299851;28;20043;-80
2023/10/30 01:14:53;;;;;;;7.30;1.10;;;;;;;11.52;75.38;98907.69;10303547;28;20063;-81
2023/10/30 01:19:57;;;;;;;3.65;0.60;;;;;;;11.44;76.21;98917.44;10327281;28;20061;-81
2023/10/30 01:25:00;;;;;;;5.43;0.80;;;;;;;11.39;76.41;98908.19;10316738;28;20051;-80
2023/10/30 01:30:05;;;;;;;5.88;1.02;;;;;;;11.45;76.12;98915.59;10308333;28;20079;-79
2023/10/30 01:35:09;;;;;;;5.32;1.45;;;;;;;11.21;76.75;98913.69;10306226;28;20047;-80
2023/10/30 01:40:12;;;;;;;6.85;1.05;;;;;;;11.17;77.14;98928.47;10304071;28;20477;-80
2023/10/30 01:45:17;;;;;;;7.05;1.55;;;;;;;11.18;77.73;98919.41;10294038;28;20051;-80
2023/10/30 01:50:20;;;;;;;1.90;0.70;;;;;;;11.24;76.22;98946.47;10309490;28;20033;-81
2023/10/30 01:55:24;;;;;;;5.28;1.15;;;;;;;11.42;76.24;98938.28;10329946;28;20052;-80
2023/10/30 02:00:30;;;;;;;4.82;0.90;;;;;;;11.39;76.09;98946.69;10323698;28;20047;-81
2023/10/30 02:05:33;;;;;;;6.13;0.98;;;;;;;11.42;75.98;98938.28;10304639;28;20047;-81
2023/10/30 02:10:36;;;;;;;7.30;1.23;;;;;;;11.66;75.03;98931.25;10295392;28;20057;-79
2023/10/30 02:15:41;;;;;;;3.85;0.80;;;;;;;11.59;75.00;98938.31;10298515;28;20039;-80
2023/10/30 02:20:44;;;;;;;4.07;1.50;;;;;;;11.47;75.62;98930.56;10306084;28;20459;-80
2023/10/30 02:25:48;;;;;;;7.65;1.55;;;;;;;11.61;75.22;98931.75;10313509;28;20050;-80
2023/10/30 02:30:51;;;;;;;3.67;1.08;;;;;;;11.49;75.74;98916.94;10321619;28;20163;-80
2023/10/30 02:35:54;;;;;;;7.15;1.10;;;;;;;11.41;76.50;98933.03;10328816;28;20030;-80
2023/10/30 02:40:58;;;;;;;9.68;1.40;;;;;;;11.17;77.71;98932.00;10331717;28;20066;-80
2023/10/30 02:46:02;;;;;;;10.25;1.35;;;;;;;11.20;77.61;98914.72;10322553;28;20094;-80
2023/10/30 02:51:06;;;;;;;4.07;1.13;;;;;;;11.24;77.23;98938.41;10329919;28;20031;-80
2023/10/30 02:56:11;;;;;;;6.88;1.77;;;;;;;11.34;76.87;98922.13;10325961;28;20026;-80
2023/10/30 03:01:14;;;;;;;8.15;0.90;;;;;;;11.41;76.83;98930.34;10332774;28;20039;-80
2023/10/30 03:06:17;;;;;;;11.05;1.95;;;;;;;11.06;78.33;98927.72;10327221;28;20047;-79
2023/10/30 03:11:21;;;;;;;10.00;1.73;;;;;;;11.30;77.72;98950.34;10328204;28;20046;-80
2023/10/30 03:16:24;;;;;;;7.35;1.15;;;;;;;11.25;77.92;98958.06;10331766;28;20054;-79
2023/10/30 03:21:27;;;;;;;6.20;1.00;;;;;;;11.41;77.41;98951.88;10318677;28;20046;-78
2023/10/30 03:26:32;;;;;;;9.63;1.05;;;;;;;11.41;77.54;98957.25;10327246;28;20046;-81
2023/10/30 03:31:35;;;;;;;5.95;1.50;;;;;;;11.39;77.63;98959.28;10320524;28;20073;-80
2023/10/30 03:36:38;;;;;;;9.57;2.08;;;;;;;11.47;77.67;98962.00;10305354;28;20105;-81
2023/10/30 03:41:44;;;;;;;13.93;1.60;;;;;;;11.58;77.50;98958.16;10323244;28;20050;-80
2023/10/30 03:46:47;;;;;;;10.38;1.60;;;;;;;11.44;78.22;98959.63;10314210;28;20050;-78
2023/10/30 03:51:51;;;;;;;8.48;2.03;;;;;;;11.46;77.85;98958.47;10303624;28;20114;-79
2023/10/30 03:56:55;;;;;;;8.32;1.48;;;;;;;11.32;78.87;98953.69;10295166;28;20070;-80
2023/10/30 04:01:58;;;;;;;8.18;1.35;;;;;;;11.44;78.66;98952.41;10297179;28;20066;-80
2023/10/30 04:07:02;;;;;;;11.57;1.17;;;;;;;11.28;79.54;98963.09;10325996;28;20082;-80
2023/10/30 04:12:07;;;;;;;5.93;1.30;;;;;;;11.34;79.29;98948.19;10309665;28;20047;-80
2023/10/30 04:17:10;;;;;;;5.50;1.30;;;;;;;11.41;78.86;98958.13;10304055;28;20122;-80
2023/10/30 04:22:13;;;;;;;6.80;1.45;;;;;;;11.34;79.30;98965.13;10319307;28;20022;-81
2023/10/30 04:27:17;;;;;;;8.15;1.52;;;;;;;11.40;79.06;98964.47;10325489;28;20509;-80
2023/10/30 04:32:21;;;;;;;8.55;1.20;;;;;;;11.26;79.73;98959.75;10317098;28;20038;-80
2023/10/30 04:37:24;;;;;;;9.30;1.58;;;;;;;11.30;79.88;98965.63;10321435;28;20109;-80
2023/10/30 04:42:30;;;;;;;8.13;1.50;;;;;;;11.24;79.91;98978.72;10311833;28;20090;-80
2023/10/30 04:47:33;;;;;;;5.60;1.38;;;;;;;11.20;79.88;98974.66;10309662;28;20039;-79
2023/10/30 04:52:36;;;;;;;5.55;1.40;;;;;;;11.30;79.58;98971.00;10302841;28;20045;-80
2023/10/30 04:57:40;;;;;;;4.47;1.00;;;;;;;11.28;79.43;98979.25;10301730;28;20046;-80
2023/10/30 05:02:46;;;;;;;10.65;2.38;;;;;;;11.20;79.98;98977.34;10304062;28;20411;-80
2023/10/30 05:07:49;;;;;;;8.40;1.52;;;;;;;11.27;79.88;98972.16;10290622;28;20066;-80
2023/10/30 05:12:54;;;;;;;8.45;1.20;;;;;;;11.30;79.51;98979.94;10307262;28;20051;-79
2023/10/30 05:17:57;;;;;;;9.93;1.25;;;;;;;11.23;79.71;98974.34;10308426;28;20069;-80
2023/10/30 05:23:00;;;;;;;6.07;1.23;;;;;;;11.17;80.27;98977.69;10291285;28;20047;-79
2023/10/30 05:28:04;;;;;;;7.00;1.35;;;;;;;11.20;80.05;98971.16;10297401;28;20415;-79
2023/10/30 05:33:07;;;;;;;8.60;1.40;;;;;;;11.15;80.35;98976.16;10295330;28;20031;-78
2023/10/30 05:38:13;;;;;;;5.93;1.63;;;;;;;11.13;80.41;98976.31;10300847;28;20490;-79
2023/10/30 05:43:21;;;;;;;9.50;2.25;;;;;;;11.09;80.66;98969.56;10303838;28;20057;-79
2023/10/30 05:48:24;;;;;;;10.88;2.25;;;;;;;11.11;80.69;98972.06;10289825;28;20462;-80
2023/10/30 05:53:27;;;;;;;8.32;1.13;;;;;;;11.02;81.12;98992.69;10296587;28;20055;-80
2023/10/30 05:58:31;;;;;;;5.72;1.35;;;;;;;11.03;81.03;98984.47;10300133;28;20070;-80
2023/10/30 06:03:34;;;;;;;10.85;1.90;;;;;;;11.05;80.79;98985.19;10301113;28;20047;-78
2023/10/30 06:08:37;;;;;;;8.35;1.63;;;;;;;11.04;80.95;98988.00;10303236;28;20049;-80
2023/10/30 06:13:41;;;;;;;10.80;1.50;;;;;;;10.95;81.53;98995.19;10291669;28;20106;-80
2023/10/30 06:18:44;;;;;;;9.85;1.83;;;;;;;10.89;81.83;99003.03;10296985;28;20137;-80
2023/10/30 06:23:47;;;;;;;10.65;1.67;;;;;;;10.94;81.76;98998.91;10310631;28;20027;-80
2023/10/30 06:28:52;;;;;;;5.03;1.75;;;;;;;10.94;81.76;99008.78;10291567;28;20125;-79
2023/10/30 06:33:55;;;;;;;6.85;1.10;;;;;;;10.73;82.65;99010.03;10286916;28;20047;-78
2023/10/30 06:39:01;;;;;;;8.95;1.27;;;;;;;10.93;82.05;99007.94;10296379;28;20067;-80
2023/10/30 06:44:06;;;;;;;6.63;1.33;;;;;;;10.96;81.85;99028.28;10299904;28;20047;-80
2023/10/30 06:49:09;;;;;;;9.32;1.73;;;;;;;10.93;82.09;99018.69;10303236;28;20063;-80
2023/10/30 06:54:13;;;;;;;9.70;2.03;;;;;;;10.86;82.30;99031.09;10327490;28;20110;-80
2023/10/30 06:59:17;;;;;;;12.77;1.60;;;;;;;10.95;82.05;99034.66;10328828;28;20207;-78
2023/10/30 07:04:21;;;;;;;8.43;1.98;;;;;;;10.88;82.44;99022.84;10302791;28;20049;-80
2023/10/30 07:09:24;;;;;;;7.88;2.72;;;;;;;10.95;82.15;99024.75;10302044;28;20058;-79
2023/10/30 07:14:29;;;;;;;10.38;1.83;;;;;;;10.98;81.95;99021.75;10307352;28;20125;-80
2023/10/30 07:19:32;;;;;;;11.90;1.50;;;;;;;11.09;81.33;99022.47;10290629;28;20046;-79
2023/10/30 07:24:36;;;;;;;10.43;1.65;;;;;;;10.84;82.55;99036.59;10300086;28;20058;-80
2023/10/30 07:29:41;;;;;;;9.23;1.38;;;;;;;10.99;81.68;99027.94;10305121;28;20082;-80
2023/10/30 07:34:44;;;;;;;4.13;1.02;;;;;;;10.78;82.83;99042.63;10302118;28;20073;-80
2023/10/30 07:39:47;;;;;;;8.00;1.58;;;;;;;11.05;81.59;99036.22;10306179;28;20085;-79
2023/10/30 07:44:51;;;;;;;11.90;1.88;;;;;;;10.90;82.32;99043.19;10309359;28;20143;-79
2023/10/30 07:49:54;;;;;;;8.10;1.50;;;;;;;11.02;81.86;99049.13;10325327;28;20024;-79
2023/10/30 07:54:57;;;;;;;6.30;1.20;;;;;;;10.81;82.46;99039.63;10314025;28;20039;-80
2023/10/30 08:00:02;;;;;;;10.38;1.48;;;;;;;10.87;82.28;99038.13;10303412;28;20054;-80
2023/10/30 08:05:14;;;;;;;8.63;2.75;;;;;;;10.86;81.83;99039.16;10291250;28;20055;-80
2023/10/30 08:10:18;;;;;;;9.27;1.40;;;;;;;11.32;80.70;99052.31;10300188;28;20090;-80
2023/10/30 08:15:22;;;;;;;8.52;1.88;;;;;;;11.87;76.93;99049.13;10300694;28;20048;-79
2023/10/30 08:20:25;;;;;;;10.77;1.42;;;;;;;12.65;73.59;99064.03;10292649;28;20458;-79
2023/10/30 08:25:28;;;;;;;8.25;1.70;;;;;;;13.27;71.46;99056.13;10298593;28;20050;-79
2023/10/30 08:30:34;;;;;;;6.05;1.23;;;;;;;13.24;70.53;99059.16;10298902;28;20141;-79
2023/10/30 08:35:37;;;;;;;10.65;3.13;;;;;;;13.31;70.23;99059.34;10303966;28;20462;-80
2023/10/30 08:40:40;;;;;;;4.88;1.45;;;;;;;13.43;69.73;99072.28;10322789;28;20037;-80
2023/10/30 08:45:44;;;;;;;6.80;1.33;;;;;;;13.61;69.63;99069.34;10297750;28;20109;-80
2023/10/30 08:50:47;;;;;;;5.70;1.38;;;;;;;13.36;70.23;99065.03;10295850;28;20046;-80
2023/10/30 08:55:50;;;;;;;6.22;1.63;;;;;;;13.17;71.63;99060.91;10304763;28;20053;-78
2023/10/30 09:00:54;;;;;;;6.65;1.35;;;;;;;13.38;71.33;99066.56;10289641;28;20046;-78
2023/10/30 09:05:57;;;;;;;3.45;1.23;;;;;;;13.49;70.46;99070.72;10303524;28;20047;-79
2023/10/30 09:11:00;;;;;;;6.93;1.58;;;;;;;13.74;69.98;99081.41;10296811;28;20050;-78
2023/10/30 09:16:06;;;;;;;4.75;1.67;;;;;;;14.19;68.11;99077.13;10299602;28;20133;-79
2023/10/30 09:21:09;;;;;;;8.18;1.17;;;;;;;14.44;66.68;99085.91;10306708;28;20027;-79
2023/10/30 09:26:13;;;;;;;5.03;1.45;;;;;;;14.57;66.89;99083.44;10319588;28;20073;-80
2023/10/30 09:31:19;;;;;;;5.72;1.25;;;;;;;15.01;64.61;99080.81;10294182;28;20054;-81
2023/10/30 09:36:22;;;;;;;6.32;1.40;;;;;;;14.55;65.91;99093.56;10302192;28;20047;-80
2023/10/30 09:41:28;;;;;;;5.45;1.17;;;;;;;14.09;67.60;99078.16;10311353;28;20050;-79
2023/10/30 09:46:33;;;;;;;6.97;1.58;;;;;;;14.12;69.01;99091.34;10291094;28;20061;-80
2023/10/30 09:51:38;;;;;;;4.40;1.48;;;;;;;13.87;70.15;99082.53;10301221;28;20229;-80
2023/10/30 09:56:43;;;;;;;5.68;1.15;;;;;;;13.91;69.08;99091.97;10300445;28;20047;-78
2023/10/30 10:01:48;;;;;;;5.10;1.27;;;;;;;13.47;71.38;99086.28;10295131;28;20043;-81
2023/10/30 10:06:53;;;;;;;7.65;1.90;;;;;;;13.59;71.89;99076.75;10308313;28;20046;-80
2023/10/30 10:11:56;;;;;;;12.45;2.22;;;;;;;14.02;70.17;99081.78;10301734;28;20490;-80
2023/10/30 10:17:01;;;;;;;6.75;1.40;;;;;;;14.01;69.65;99070.13;10294725;28;20043;-81
2023/10/30 10:22:04;;;;;;;10.50;2.20;;;;;;;13.50;71.86;99077.81;10298997;28;20052;-80
2023/10/30 10:27:07;;;;;;;6.68;1.63;;;;;;;13.88;71.19;99065.31;10309440;28;20035;-81
2023/10/30 10:32:12;;;;;;;8.65;1.63;;;;;;;14.13;69.73;99067.88;10304450;28;20554;-80
2023/10/30 10:37:19;;;;;;;6.15;1.77;;;;;;;14.14;70.01;99058.75;10302587;28;20042;-79
2023/10/30 10:42:23;;;;;;;5.55;1.27;;;;;;;14.27;69.16;99048.19;10300120;28;20047;-81
2023/10/30 10:47:28;;;;;;;7.45;1.60;;;;;;;15.41;65.58;99037.28;10286362;28;20035;-79
2023/10/30 10:52:32;;;;;;;9.35;1.88;;;;;;;16.78;59.71;99021.84;10304048;28;20047;-79
2023/10/30 10:57:43;;;;;;;3.88;1.00;;;;;;;16.28;59.60;99023.69;10321579;28;20058;-81
2023/10/30 11:02:49;;;;;;;5.32;1.20;;;;;;;16.05;61.44;99014.91;10313755;28;20039;-81
2023/10/30 11:07:58;;;;;;;3.75;1.40;;;;;;;17.30;57.35;99011.50;10303802;28;20039;-80
2023/10/30 11:13:11;;;;;;;3.20;1.10;;;;;;;17.55;55.63;99003.72;10286335;28;20049;-81
2023/10/30 11:18:18;;;;;;;2.90;0.93;;;;;;;18.59;52.47;99007.84;10295071;28;20047;-81
2023/10/30 11:23:54;;;;;;;3.38;0.90;;;;;;;17.91;52.25;98992.53;10295031;28;20131;-80
2023/10/30 11:28:58;;;;;;;5.45;1.13;;;;;;;18.32;53.00;98987.97;10290944;28;20159;-80
2023/10/30 11:34:13;;;;;;;2.20;0.80;;;;;;;18.57;51.37;98974.63;10293879;28;20051;-81
2023/10/30 11:39:21;;;;;;;2.42;1.52;;;;;;;19.38;49.01;98949.72;10291132;28;20050;-80
2023/10/30 11:44:29;;;;;;;2.90;0.68;;;;;;;19.20;48.95;98949.59;10283324;28;20050;-80
2023/10/30 11:49:33;;;;;;;2.65;0.70;;;;;;;19.17;48.44;98956.31;10286592;28;20457;-79
2023/10/30 11:54:36;;;;;;;1.38;0.90;;;;;;;19.05;48.93;98952.56;10288250;28;20051;-80
2023/10/30 11:59:39;;;;;;;2.35;0.60;;;;;;;18.06;51.31;98957.03;10295831;28;20082;-80
2023/10/30 12:04:45;;;;;;;0.85;0.40;;;;;;;19.57;48.33;98953.41;10287670;28;20117;-81
2023/10/30 12:09:48;;;;;;;2.78;0.50;;;;;;;18.88;48.12;98957.66;10293654;28;20483;-80
2023/10/30 12:14:51;;;;;;;1.85;0.77;;;;;;;17.86;51.05;98951.56;10295286;28;20525;-80
2023/10/30 12:19:56;;;;;;;2.35;0.60;;;;;;;18.14;50.23;98939.72;10296043;28;20138;-80
2023/10/30 12:24:59;;;;;;;1.85;0.40;;;;;;;17.72;51.83;98939.00;10292893;28;20046;-80
2023/10/30 12:30:10;;;;;;;1.83;0.40;;;;;;;19.34;48.15;98915.81;10302682;28;20133;-80
2023/10/30 12:35:15;;;;;;;1.50;0.43;;;;;;;19.78;47.56;98916.84;10295366;28;20094;-80
2023/10/30 12:40:17;;;;;;;1.00;0.32;;;;;;;20.01;47.22;98910.81;10290386;28;20051;-80
2023/10/30 12:45:21;;;;;;;0.40;0.28;;;;;;;19.57;46.48;98901.69;10291457;28;20050;-78
2023/10/30 12:50:26;;;;;;;1.40;0.47;;;;;;;19.08;47.55;98883.28;10299794;28;20046;-80
2023/10/30 12:55:28;;;;;;;0.73;0.40;;;;;;;18.48;49.57;98880.72;10285490;28;20043;-79
2023/10/30 13:00:31;;;;;;;1.10;0.32;;;;;;;18.60;49.50;98868.16;10301740;28;20057;-78
2023/10/30 13:05:35;;;;;;;0.20;0.20;;;;;;;17.82;50.94;98860.66;10292588;28;20066;-78
2023/10/30 13:10:38;;;;;;;1.45;0.55;;;;;;;17.93;50.32;98848.34;10296360;28;20176;-80
2023/10/30 13:15:41;;;;;;;1.85;0.63;;;;;;;17.98;50.56;98840.44;10280792;28;20099;-79
2023/10/30 13:20:46;;;;;;;3.28;0.30;;;;;;;17.03;53.28;98842.31;10285925;28;20190;-80
2023/10/30 13:25:49;;;;;;;1.10;0.40;;;;;;;17.08;53.25;98831.69;10287775;28;20039;-79
2023/10/30 13:30:52;;;;;;;2.25;0.40;;;;;;;17.38;53.28;98812.41;10282051;28;20094;-78
2023/10/30 13:35:56;;;;;;;1.63;0.40;;;;;;;17.32;53.04;98803.22;10298611;28;20039;-78
2023/10/30 13:41:00;;;;;;;0.50;0.30;;;;;;;17.65;53.01;98796.97;10282168;28;20494;-80
2023/10/30 13:46:02;;;;;;;0.75;0.32;;;;;;;17.93;53.01;98785.88;10285825;28;20092;-80
2023/10/30 13:51:07;;;;;;;1.58;0.40;;;;;;;18.17;52.19;98762.66;10297271;28;20066;-80
2023/10/30 13:56:10;;;;;;;0.68;0.30;;;;;;;17.86;52.38;98752.47;10292091;28;20129;-81
2023/10/30 14:01:13;;;;;;;2.20;0.50;;;;;;;17.56;54.07;98750.19;10294564;28;20479;-80
2023/10/30 14:06:17;;;;;;;2.15;0.60;;;;;;;17.33;55.24;98739.75;10294709;28;20559;-80
2023/10/30 14:11:23;;;;;;;2.80;0.47;;;;;;;17.23;57.42;98744.75;10295175;28;20066;-80
2023/10/30 14:16:28;;;;;;;2.08;0.68;;;;;;;17.04;58.04;98738.22;10288925;28;20493;-80
2023/10/30 14:21:34;;;;;;;1.17;0.50;;;;;;;16.87;59.61;98735.09;10294524;28;20041;-79
2023/10/30 14:26:38;;;;;;;0.60;0.40;;;;;;;16.72;60.35;98740.66;10290524;28;20035;-80
2023/10/30 14:31:41;;;;;;;1.20;0.60;;;;;;;16.49;61.54;98732.88;10321642;28;20073;-81
2023/10/30 14:36:45;;;;;;;2.08;0.50;;;;;;;16.30;61.19;98733.63;10311015;28;20045;-81
2023/10/30 14:41:48;;;;;;;0.68;0.38;;;;;;;16.20;62.48;98725.00;10316636;28;20051;-79
2023/10/30 14:46:51;;;;;;;0.75;0.40;;;;;;;16.05;63.46;98725.97;10302139;28;20039;-77
2023/10/30 14:51:55;;;;;;;1.98;0.65;;;;;;;15.92;64.86;98725.91;10293333;28;20054;-80
2023/10/30 14:56:58;;;;;;;0.63;0.60;;;;;;;15.81;65.29;98721.88;10294628;28;20045;-78
2023/10/30 15:02:01;;;;;;;3.00;0.98;;;;;;;15.78;66.05;98710.63;10290861;28;20049;-80
2023/10/30 15:07:10;;;;;;;1.90;0.50;;;;;;;15.70;67.13;98701.59;10299604;28;20074;-80
2023/10/30 15:12:15;;;;;;;2.95;0.60;;;;;;;15.58;66.78;98697.78;10295680;28;20046;-80
2023/10/30 15:17:18;;;;;;;1.25;0.63;;;;;;;15.47;67.37;98699.16;10309621;28;20054;-80
2023/10/30 15:22:22;;;;;;;2.03;0.85;;;;;;;15.32;68.17;98692.13;10301824;28;20058;-80
2023/10/30 15:27:27;;;;;;;3.38;1.02;;;;;;;15.22;69.05;98682.50;10301069;28;20058;-80
2023/10/30 15:32:32;;;;;;;0.93;0.40;;;;;;;15.14;69.29;98679.94;10301732;28;20055;-79
2023/10/30 15:37:37;;;;;;;1.10;0.70;;;;;;;14.99;70.63;98669.19;10300608;28;20042;-80
2023/10/30 15:42:40;;;;;;;1.88;0.80;;;;;;;14.80;71.82;98665.28;10278466;28;20042;-78
2023/10/30 15:47:45;;;;;;;1.38;0.55;;;;;;;14.56;73.17;98660.25;10296777;28;20052;-79
2023/10/30 15:52:50;;;;;;;2.45;0.98;;;;;;;14.37;74.05;98643.63;10294826;28;20046;-80
2023/10/30 15:57:58;;;;;;;3.80;1.02;;;;;;;14.20;74.39;98630.53;10298021;28;20449;-81
2023/10/30 16:03:01;;;;;;;2.22;0.88;;;;;;;13.98;74.48;98629.66;10293978;28;20106;-79
2023/10/30 16:08:08;;;;;;;2.25;1.20;;;;;;;13.95;74.48;98625.47;10288310;28;20177;-79
2023/10/30 16:13:28;;;;;;;2.25;0.90;;;;;;;13.93;74.29;98619.41;10292880;28;20054;-79
2023/10/30 16:18:44;;;;;;;2.28;1.23;;;;;;;14.00;73.97;98612.25;10300033;28;20395;-79
2023/10/30 16:23:51;;;;;;;2.30;0.80;;;;;;;13.87;74.46;98606.69;10298447;28;20069;-80
2023/10/30 16:28:54;;;;;;;3.25;1.23;;;;;;;13.81;74.54;98607.44;10288199;28;20524;-80
2023/10/30 16:33:57;;;;;;;1.00;0.95;;;;;;;13.89;74.41;98604.63;10295008;28;20043;-80
2023/10/30 16:39:01;;;;;;;2.25;1.40;;;;;;;13.77;75.48;98593.50;10296319;28;20080;-80
2023/10/30 16:44:05;;;;;;;4.25;1.95;;;;;;;13.65;76.09;98579.63;10293172;28;20054;-79
2023/10/30 16:49:08;;;;;;;3.60;2.45;;;;;;;13.61;76.13;98586.44;10299519;28;20056;-78
2023/10/30 16:54:12;;;;;;;10.70;6.10;;;;;;;13.60;76.29;98592.00;10286381;28;20046;-81
2023/10/30 16:59:15;;;;;;;2.80;2.25;;;;;;;13.67;75.96;98595.66;10287476;28;20050;-79
2023/10/30 17:04:18;;;;;;;2.15;1.77;;;;;;;13.68;75.26;98598.13;10287432;28;20058;-79
2023/10/30 17:09:23;;;;;;;3.75;1.35;;;;;;;13.62;74.83;98598.91;10275048;28;20090;-77
2023/10/30 17:14:26;;;;;;;3.10;1.10;;;;;;;13.75;73.88;98592.00;10283015;28;20180;-80
2023/10/30 17:19:29;;;;;;;4.28;1.30;;;;;;;13.62;74.63;98584.56;10288375;28;20046;-80
2023/10/30 17:24:33;;;;;;;3.00;1.17;;;;;;;13.68;75.36;98589.22;10280356;28;20046;-80
2023/10/30 17:29:36;;;;;;;2.13;0.93;;;;;;;13.51;76.94;98574.28;10285629;28;20054;-77
2023/10/30 17:34:39;;;;;;;1.23;0.90;;;;;;;13.52;76.93;98573.22;10323259;28;20092;-78
2023/10/30 17:39:47;;;;;;;1.98;0.82;;;;;;;13.64;77.00;98572.56;10324365;28;20054;-79
2023/10/30 17:44:53;;;;;;;1.35;1.23;;;;;;;13.41;78.86;98570.00;10309685;28;20046;-80
2023/10/30 17:49:57;;;;;;;1.17;1.00;;;;;;;13.39;80.54;98563.97;10303824;28;20043;-79
2023/10/30 17:55:01;;;;;;;3.03;1.33;;;;;;;13.38;81.89;98575.75;10314740;28;20073;-78
2023/10/30 18:00:06;;;;;;;2.03;1.13;;;;;;;13.27;82.94;98573.50;10286667;28;20058;-78
2023/10/30 18:05:13;;;;;;;5.72;3.78;;;;;;;13.30;82.82;98577.66;10287874;28;20050;-79
2023/10/30 18:10:17;;;;;;;5.13;3.58;;;;;;;13.22;83.84;98576.75;10292828;28;20060;-79
2023/10/30 18:15:21;;;;;;;2.30;1.70;;;;;;;13.07;86.02;98581.28;10289711;28;20078;-78
2023/10/30 18:20:29;;;;;;;1.90;1.27;;;;;;;12.98;88.02;98580.53;10289731;28;20538;-79
2023/10/30 18:25:33;;;;;;;1.92;1.30;;;;;;;12.80;90.46;98577.34;10292415;28;20157;-79
2023/10/30 18:30:37;;;;;;;2.70;1.30;;;;;;;12.68;92.45;98574.25;10284423;28;20061;-80
2023/10/30 18:35:41;;;;;;;2.28;0.90;;;;;;;12.69;95.73;98569.69;10288824;28;20191;-80
2023/10/30 18:40:50;;;;;;;5.95;1.40;;;;;;;12.32;100.00;98579.44;10294465;28;20042;-80
2023/10/30 18:45:53;;;;;;;5.18;1.35;;;;;;;12.19;100.00;98581.84;10302084;28;20046;-82
2023/10/30 18:50:57;;;;;;;2.92;1.35;;;;;;;11.97;100.00;98578.13;10304798;28;20138;-84
2023/10/30 18:56:06;;;;;;;2.55;2.35;;;;;;;11.95;100.00;98562.13;10317476;28;20145;-85
2023/10/30 19:01:11;;;;;;;5.63;3.03;;;;;;;11.89;100.00;98574.44;10304440;28;20057;-85
2023/10/30 19:06:15;;;;;;;3.08;2.00;;;;;;;11.88;100.00;98569.25;10306504;28;20403;-87
2023/10/30 19:11:23;;;;;;;8.90;4.90;;;;;;;11.85;100.00;98559.69;10311188;28;20073;-85
2023/10/30 19:16:29;;;;;;;4.57;3.50;;;;;;;11.90;100.00;98543.00;10324719;28;20057;-85
2023/10/30 19:21:32;;;;;;;10.30;5.85;;;;;;;11.95;100.00;98538.75;10320072;28;20058;-85
2023/10/30 19:26:39;;;;;;;9.40;6.57;;;;;;;11.97;100.00;98540.44;10311764;28;20050;-84
2023/10/30 19:31:42;;;;;;;5.43;3.15;;;;;;;11.92;100.00;98528.34;10306103;28;20054;-85
2023/10/30 19:36:51;;;;;;;2.67;2.15;;;;;;;11.83;100.00;98525.91;10311731;28;20050;-84
2023/10/30 19:41:58;;;;;;;4.03;2.60;;;;;;;11.90;100.00;98525.03;10314052;28;20094;-86
2023/10/30 19:47:01;;;;;;;1.92;1.75;;;;;;;11.88;100.00;98510.91;10306118;28;20050;-83
2023/10/30 19:52:08;;;;;;;2.60;2.40;;;;;;;11.91;100.00;98512.41;10311556;28;20721;-83
2023/10/30 19:57:13;;;;;;;5.65;3.30;;;;;;;11.85;100.00;98508.56;10309734;28;20066;-84
2023/10/30 20:02:18;;;;;;;3.50;2.65;;;;;;;11.80;100.00;98508.28;10314899;28;20058;-84
2023/10/30 20:07:23;;;;;;;6.75;2.80;;;;;;;11.95;100.00;98501.09;10321077;28;20047;-81
2023/10/30 20:12:28;;;;;;;5.53;3.15;;;;;;;12.00;100.00;98492.50;10347272;28;20124;-82
2023/10/30 20:17:40;;;;;;;5.78;5.20;;;;;;;12.01;100.00;98491.47;10328333;28;20054;-85
2023/10/30 20:22:44;;;;;;;5.50;2.78;;;;;;;12.01;100.00;98486.06;10323000;28;20073;-83
2023/10/30 20:27:54;;;;;;;5.22;3.95;;;;;;;11.98;100.00;98481.06;10317324;28;20057;-83
2023/10/30 20:32:59;;;;;;;5.55;3.40;;;;;;;11.96;100.00;98475.03;10315031;28;20168;-83
2023/10/30 20:38:02;;;;;;;7.03;4.65;;;;;;;11.94;100.00;98461.75;10328720;28;20072;-83
2023/10/30 20:43:07;;;;;;;5.10;4.38;;;;;;;11.90;100.00;98451.53;10317147;28;20193;-82
2023/10/30 20:48:10;;;;;;;6.28;3.97;;;;;;;11.91;100.00;98440.59;10313718;28;20685;-83
2023/10/30 20:53:15;;;;;;;5.63;3.20;;;;;;;11.92;100.00;98436.88;10299107;28;20058;-82
2023/10/30 20:58:20;;;;;;;5.03;3.20;;;;;;;11.92;100.00;98441.44;10304739;28;20054;-82
2023/10/30 21:03:23;;;;;;;5.00;3.92;;;;;;;11.93;100.00;98438.56;10308530;28;20046;-82
2023/10/30 21:08:26;;;;;;;4.57;3.97;;;;;;;11.85;100.00;98437.81;10301178;28;20392;-84
2023/10/30 21:13:32;;;;;;;6.15;3.75;;;;;;;11.81;100.00;98448.06;10318808;28;20055;-82
2023/10/30 21:18:35;;;;;;;6.43;2.97;;;;;;;11.64;100.00;98450.03;10321930;28;20050;-80
2023/10/30 21:23:38;;;;;;;6.97;2.10;;;;;;;11.84;100.00;98441.50;10299633;28;20050;-83
2023/10/30 21:28:42;;;;;;;2.47;1.70;;;;;;;11.76;100.00;98439.69;10295592;28;20122;-83
2023/10/30 21:33:45;;;;;;;3.40;1.85;;;;;;;11.67;100.00;98430.84;10308973;28;20046;-82
2023/10/30 21:38:48;;;;;;;6.30;3.78;;;;;;;11.91;100.00;98416.38;10301967;28;20077;-83
2023/10/30 21:43:53;;;;;;;6.07;3.10;;;;;;;11.98;100.00;98400.34;10285471;28;20083;-84
2023/10/30 21:48:56;;;;;;;5.15;2.33;;;;;;;11.94;100.00;98380.22;10292340;28;20066;-83
2023/10/30 21:54:00;;;;;;;3.15;1.83;;;;;;;11.88;100.00;98378.25;10295794;28;20061;-82
2023/10/30 21:59:04;;;;;;;3.13;2.35;;;;;;;11.84;100.00;98352.72;10273749;28;20510;-81
2023/10/30 22:04:08;;;;;;;6.93;1.83;;;;;;;11.67;100.00;98352.88;10297391;28;20541;-81
2023/10/30 22:09:12;;;;;;;2.30;1.90;;;;;;;11.73;100.00;98336.00;10300983;28;20521;-80
2023/10/30 22:14:16;;;;;;;3.85;2.00;;;;;;;11.74;100.00;98334.16;10297477;28;20055;-79
2023/10/30 22:19:19;;;;;;;4.38;2.30;;;;;;;11.85;100.00;98331.03;10295988;28;20141;-79
2023/10/30 22:24:22;;;;;;;5.03;3.20;;;;;;;11.89;100.00;98324.25;10299128;28;20050;-79
2023/10/30 22:29:27;;;;;;;3.83;3.53;;;;;;;11.85;100.00;98319.44;10299833;28;20042;-80
2023/10/30 22:34:30;;;;;;;4.97;4.50;;;;;;;11.87;100.00;98306.63;10293526;28;20055;-80
2023/10/30 22:39:33;;;;;;;2.88;2.10;;;;;;;11.90;100.00;98309.81;10303443;28;20054;-79
2023/10/30 22:44:38;;;;;;;2.75;2.10;;;;;;;11.88;100.00;98297.56;10298137;28;20114;-78
2023/10/30 22:49:40;;;;;;;7.25;2.78;;;;;;;11.91;100.00;98291.81;10289780;28;20073;-79
2023/10/30 22:54:44;;;;;;;2.67;2.30;;;;;;;11.89;100.00;98289.28;10291769;28;20042;-80
2023/10/30 22:59:48;;;;;;;3.83;3.38;;;;;;;11.88;100.00;98293.00;10299891;28;20049;-79
2023/10/30 23:04:51;;;;;;;3.58;3.28;;;;;;;11.92;100.00;98280.03;10291826;28;20116;-81
2023/10/30 23:09:54;;;;;;;5.35;4.28;;;;;;;11.92;100.00;98288.09;10290980;28;20077;-80
2023/10/30 23:15:01;;;;;;;4.72;4.32;;;;;;;11.92;100.00;98274.63;10289651;28;20050;-79
2023/10/30 23:20:06;;;;;;;7.50;4.30;;;;;;;11.92;100.00;98272.78;10308231;28;20077;-81
2023/10/30 23:25:10;;;;;;;3.92;3.50;;;;;;;11.94;100.00;98280.69;10302113;28;21198;-79
2023/10/30 23:30:14;;;;;;;5.10;2.80;;;;;;;11.88;100.00;98276.03;10295735;28;20532;-79